Latest Weather Observations for Yarrawonga

IDV60801

Issued at 8:02 am EST Thursday 18 July 2024 (issued every 10 minutes, with the page automatically refreshed every 10 minutes)

About weather observations | Map of weather stations | Latest weather observations for VIC | Other Formats
Station Details ID: 081124 Name: YARRAWONGA Lat: -36.03 Lon: 146.03 Height: 128.9 m
Data from the previous 72 hours. | See also: Recent months at Yarrawonga
Date/Time
EST
Temp
°C
App
Temp
°C
Dew
Point
°C
Rel
Hum
%
Delta-T
°C
Wind Press
QNH
hPa
Press
MSL
hPa
Rain since
9am
mm
Dir  Spd
km/h
Gust
km/h
Spd
kts
Gust
kts
18/08:00am 4.7 0.3 4.7 100 0.0 WSW 17 22 9 12 1015.7 1015.9 0.2
18/07:30am 3.8 0.0 3.8 100 0.0 WSW 13 17 7 9 1015.3 1015.5 0.2
18/07:00am 4.1 0.7 4.1 100 0.0 WSW 11 17 6 9 1014.8 1015.1 0.2
18/06:30am 4.3 0.2 4.3 100 0.0 WSW 15 19 8 10 1014.7 1015.0 0.2
18/06:00am 4.4 0.7 4.4 100 0.0 WSW 13 17 7 9 1014.4 1014.7 0.2
18/05:30am 4.5 0.4 4.5 100 0.0 WSW 15 20 8 11 1014.2 1014.5 0.2
18/05:00am 4.8 0.4 4.8 100 0.0 WSW 17 20 9 11 1014.1 1014.4 0.2
18/04:30am 4.7 0.7 4.7 100 0.0 WSW 15 17 8 9 1013.9 1014.2 0.2
18/04:00am 4.8 1.5 4.8 100 0.0 WSW 11 15 6 8 1014.0 1014.3 0.2
18/03:30am 4.7 1.0 4.7 100 0.0 WSW 13 15 7 8 1013.7 1014.0 0.0
18/03:00am 4.6 1.7 4.6 100 0.0 WSW 9 11 5 6 1013.6 1013.9 0.0
18/02:30am 5.6 2.1 5.6 100 0.0 WSW 13 17 7 9 1013.6 1013.9 0.0
18/02:00am 5.8 2.0 5.8 100 0.0 WSW 15 19 8 10 1013.6 1013.9 0.0
18/01:30am 5.7 1.9 5.7 100 0.0 WSW 15 17 8 9 1013.6 1013.9 0.0
18/01:00am 6.2 2.9 6.2 100 0.0 WSW 13 17 7 9 1013.6 1013.9 0.0
18/12:30am 6.4 2.7 6.4 100 0.0 WSW 15 17 8 9 1013.5 1013.8 0.0
18/12:00am 6.9 3.3 6.9 100 0.0 WSW 15 17 8 9 1013.7 1014.0 0.0
 
Date/Time
EST
Temp
°C
App
Temp
°C
Dew
Point
°C
Rel
Hum
%
Delta-T
°C
Wind Press
QNH
hPa
Press
MSL
hPa
Rain since
9am
mm
Dir  Spd
km/h
Gust
km/h
Spd
kts
Gust
kts
17/11:30pm 7.5 4.5 7.5 100 0.0 W 13 15 7 8 1013.7 1014.0 0.0
17/11:00pm 8.0 5.1 8.0 100 0.0 WSW 13 17 7 9 1013.6 1013.9 0.0
17/10:30pm 8.5 6.1 8.5 100 0.0 WSW 11 15 6 8 1013.6 1013.9 0.0
17/10:00pm 9.3 6.3 9.3 100 0.0 WSW 15 17 8 9 1013.5 1013.8 0.0
17/09:30pm 9.5 6.2 9.5 100 0.0 WSW 17 19 9 10 1013.3 1013.6 0.0
17/09:00pm 9.3 6.3 9.3 100 0.0 WSW 15 19 8 10 1013.1 1013.4 0.0
17/08:30pm 10.0 6.8 9.9 99 0.1 WSW 17 20 9 11 1012.8 1013.1 0.0
17/08:00pm 9.7 7.6 9.6 99 0.1 WSW 11 13 6 7 1012.6 1012.9 0.0
17/07:30pm 9.7 7.4 9.1 96 0.3 WSW 11 13 6 7 1012.3 1012.6 0.0
17/07:00pm 9.3 7.1 9.2 99 0.0 WSW 11 13 6 7 1012.1 1012.4 0.0
17/06:30pm 7.9 6.3 7.8 99 0.0 WSW 6 7 3 4 1011.8 1012.0 0.0
17/06:00pm 9.0 7.4 7.8 92 0.6 WSW 6 7 3 4 1011.4 1011.6 0.0
17/05:30pm 10.1 8.3 8.0 87 1.0 SW 7 7 4 4 1011.0 1011.2 0.0
17/05:00pm 12.6 10.9 7.5 71 2.5 SW 6 9 3 5 1010.8 1011.0 0.0
17/04:30pm 13.8 11.8 7.3 65 3.2 WSW 7 9 4 5 1010.7 1010.9 0.0
17/04:00pm 14.0 11.8 6.4 60 3.7 SSW 7 13 4 7 1010.5 1010.7 0.0
17/03:30pm 14.7 11.8 6.5 58 4.0 SW 11 15 6 8 1010.3 1010.5 0.0
17/03:00pm 14.5 10.7 5.6 55 4.3 SSW 15 22 8 12 1010.0 1010.2 0.0
17/02:30pm 14.8 10.5 5.1 52 4.6 SSW 17 24 9 13 1010.0 1010.2 0.0
17/02:00pm 14.8 10.2 5.6 54 4.4 SSW 19 24 10 13 1009.8 1010.0 0.0
17/01:30pm 14.3 9.1 3.5 48 4.9 SSW 20 28 11 15 1009.9 1010.1 0.0
17/01:00pm 14.7 10.4 6.8 59 3.9 SSW 19 26 10 14 1010.1 1010.3 0.0
17/12:30pm 14.2 9.9 7.7 65 3.2 SSW 20 28 11 15 1010.4 1010.6 0.0
17/12:00pm 13.8 9.8 8.4 70 2.7 SSW 19 26 10 14 1010.8 1011.0 0.0
17/11:30am 13.0 8.9 7.9 71 2.5 SSW 19 24 10 13 1011.0 1011.2 0.0
17/11:00am 12.2 8.2 8.1 76 2.0 SSW 19 24 10 13 1011.3 1011.5 0.0
17/10:30am 11.4 9.2 9.5 88 1.0 SW 11 19 6 10 1011.4 1011.6 0.0
17/10:00am 10.5 7.5 9.3 92 0.6 SSW 15 22 8 12 1011.3 1011.5 0.0
17/09:30am 9.4 7.2 9.3 99 0.0 SSW 11 15 6 8 1011.1 1011.3 0.0
17/09:00am 8.1 6.3 8.1 100 0.0 SSW 7 11 4 6 1011.0 1011.2 1.4
17/08:30am 6.7 5.6 6.7 100 0.0 S 2 4 1 2 1010.7 1010.9 1.4
17/08:00am 6.4 4.2 6.4 100 0.0 SSW 7 11 4 6 1010.3 1010.5 1.4
17/07:30am 6.3 3.4 6.3 100 0.0 SSW 11 15 6 8 1010.1 1010.3 1.4
17/07:00am 6.3 3.4 6.3 100 0.0 SW 11 15 6 8 1009.9 1010.1 1.4
17/06:30am 5.6 3.5 5.6 100 0.0 SW 6 6 3 3 1009.6 1009.8 1.4
17/06:00am 5.8 3.5 5.8 100 0.0 SW 7 9 4 5 1009.3 1009.5 1.4
17/05:30am 5.7 3.4 5.7 100 0.0 SSW 7 9 4 5 1009.1 1009.3 1.4
17/05:00am 5.5 2.8 5.5 100 0.0 SW 9 11 5 6 1008.8 1009.0 1.4
17/04:30am 4.6 1.3 4.6 100 0.0 SW 11 15 6 8 1008.8 1009.0 1.4
17/04:00am 4.5 1.2 4.5 100 0.0 SSW 11 13 6 7 1008.8 1009.0 1.4
17/03:30am 3.8 0.7 3.8 100 0.0 SW 9 13 5 7 1008.7 1008.9 1.4
17/03:00am 4.5 0.8 4.5 100 0.0 SW 13 15 7 8 1008.7 1008.9 1.4
17/02:30am 5.0 2.7 5.0 100 0.0 SW 6 7 3 4 1008.7 1008.9 1.4
17/02:00am 5.5 2.8 5.5 100 0.0 SW 9 13 5 7 1008.6 1008.8 1.4
17/01:30am 6.1 2.7 6.1 100 0.0 SW 13 15 7 8 1008.4 1008.6 1.4
17/01:00am 5.5 2.4 5.5 100 0.0 SW 11 13 6 7 1008.4 1008.6 1.4
17/12:30am 5.4 2.3 5.4 100 0.0 SW 11 13 6 7 1008.4 1008.6 1.2
17/12:00am 6.0 3.0 6.0 100 0.0 SW 11 11 6 6 1008.6 1008.8 1.2
 
Date/Time
EST
Temp
°C
App
Temp
°C
Dew
Point
°C
Rel
Hum
%
Delta-T
°C
Wind Press
QNH
hPa
Press
MSL
hPa
Rain since
9am
mm
Dir  Spd
km/h
Gust
km/h
Spd
kts
Gust
kts
16/11:30pm 6.6 4.1 6.6 100 0.0 SW 9 13 5 7 1008.7 1008.9 1.2
16/11:00pm 7.1 4.3 7.1 100 0.0 SW 11 15 6 8 1008.7 1008.9 1.2
16/10:30pm 7.3 4.2 7.3 100 0.0 SW 13 15 7 8 1008.5 1008.7 1.2
16/10:00pm 7.7 4.7 7.7 100 0.0 SW 13 15 7 8 1008.4 1008.6 1.2
16/09:30pm 7.8 4.8 7.8 100 0.0 SW 13 15 7 8 1008.2 1008.4 1.2
16/09:00pm 8.5 5.3 8.5 100 0.0 SW 15 19 8 10 1007.8 1008.0 1.2
16/08:30pm 9.1 5.3 9.1 100 0.0 WSW 19 22 10 12 1007.6 1007.8 1.2
16/08:00pm 9.8 5.6 9.8 100 0.0 WSW 22 28 12 15 1007.4 1007.6 1.2
16/07:30pm 9.9 6.3 9.9 100 0.0 WSW 19 26 10 14 1007.0 1007.2 1.2
16/07:00pm 10.0 6.4 10.0 100 0.0 WSW 19 22 10 12 1006.9 1007.1 1.2
16/06:30pm 10.5 7.1 10.5 100 0.0 WSW 19 24 10 13 1006.4 1006.7 1.2
16/06:00pm 10.9 7.6 10.9 100 0.0 W 19 22 10 12 1006.2 1006.5 1.2
16/05:30pm 10.8 7.8 10.8 100 0.0 WSW 17 20 9 11 1006.1 1006.4 1.2
16/05:00pm 10.9 7.6 10.9 100 0.0 WSW 19 22 10 12 1005.8 1006.1 1.2
16/04:30pm 11.1 7.7 11.1 100 0.0 SW 20 24 11 13 1005.6 1005.8 1.0
16/04:00pm 11.5 8.7 11.3 99 0.1 SW 17 24 9 13 1005.3 1005.5 0.6
16/03:30pm 11.8 8.5 11.6 99 0.1 SW 20 26 11 14 1004.9 1005.1 0.4
16/03:00pm 12.1 9.5 11.9 99 0.1 SW 17 22 9 12 1004.6 1004.8 0.4
16/02:30pm 11.7 8.6 11.7 100 0.0 SW 19 26 10 14 1004.4 1004.6 0.4
16/02:00pm 12.1 8.9 11.8 98 0.2 SW 20 26 11 14 1004.2 1004.4 0.2
16/01:30pm 11.9 7.8 11.6 98 0.2 SW 24 32 13 17 1004.1 1004.3 0.2
16/01:00pm 13.1 8.7 10.5 84 1.4 SW 24 33 13 18 1004.0 1004.2 0.0
16/12:30pm 14.2 9.4 10.4 78 2.0 SSW 26 35 14 19 1004.0 1004.2 0.0
16/12:00pm 15.3 11.3 11.7 79 2.0 SW 24 32 13 17 1003.8 1004.0 0.0
16/11:30am 15.0 10.8 12.3 84 1.5 SW 26 35 14 19 1004.0 1004.2 0.0
16/11:00am 13.4 8.6 11.8 90 0.9 SW 28 37 15 20 1004.1 1004.3 0.0
16/10:30am 12.3 8.0 12.1 99 0.1 WSW 26 33 14 18 1003.8 1004.0 0.0
16/10:00am 10.8 6.5 10.8 100 0.0 WSW 24 30 13 16 1003.6 1003.8 0.0
16/09:30am 10.3 6.3 10.3 100 0.0 WSW 22 28 12 15 1003.2 1003.4 0.0
16/09:00am 9.4 5.1 9.4 100 0.0 WSW 22 30 12 16 1002.8 1003.0 1.2
16/08:30am 8.8 4.4 8.8 100 0.0 W 22 30 12 16 1002.5 1002.7 1.2
16/08:00am 8.3 3.7 8.3 100 0.0 W 22 32 12 17 1002.1 1002.3 1.2
16/07:30am 8.1 3.9 8.1 100 0.0 W 20 24 11 13 1002.0 1002.2 1.2
16/07:00am 8.6 4.7 8.6 100 0.0 W 19 24 10 13 1001.8 1002.0 1.2
16/06:30am 8.7 3.5 8.7 100 0.0 W 26 33 14 18 1001.2 1001.4 1.2
16/06:00am 8.9 3.3 8.9 100 0.0 WSW 28 39 15 21 1000.9 1001.1 1.2
16/05:30am 8.9 2.6 8.9 100 0.0 WSW 32 46 17 25 1000.4 1000.6 1.2
16/05:09am 8.8 2.2 8.7 99 0.0 W 33 52 18 28 1000.3 1000.5 1.2
16/05:00am 8.8 2.4 8.7 99 0.0 W 32 41 17 22 1000.1 1000.3 1.2
16/04:30am 8.6 2.2 8.5 99 0.0 W 32 43 17 23 1000.3 1000.5 1.2
16/04:00am 8.4 1.7 8.3 99 0.0 W 33 46 18 25 1000.2 1000.4 1.2
16/03:30am 8.4 1.4 8.3 99 0.0 W 35 48 19 26 1000.4 1000.6 1.2
16/03:00am 8.3 1.6 8.2 99 0.0 W 33 46 18 25 1000.7 1000.9 1.2
16/02:30am 8.3 1.8 8.2 99 0.0 W 32 44 17 24 1001.0 1001.2 1.2
16/02:00am 8.4 1.9 8.0 97 0.2 WNW 32 54 17 29 1001.0 1001.2 1.2
16/01:53am 8.5 1.7 7.9 96 0.3 WNW 33 54 18 29 1001.1 1001.3 1.2
16/01:30am 8.2 1.5 8.1 99 0.0 WNW 33 46 18 25 1001.3 1001.5 1.2
16/01:00am 8.2 2.0 7.9 98 0.1 WNW 30 43 16 23 1001.8 1002.0 1.0
16/12:30am 8.4 1.6 7.5 94 0.4 WNW 33 46 18 25 1002.3 1002.5 1.0
16/12:02am 8.4 2.1 7.2 92 0.6 WNW 30 48 16 26 1002.8 1003.0 1.0
16/12:00am 8.4 2.5 7.3 93 0.5 WNW 28 43 15 23 1002.9 1003.1 1.0
 
Date/Time
EST
Temp
°C
App
Temp
°C
Dew
Point
°C
Rel
Hum
%
Delta-T
°C
Wind Press
QNH
hPa
Press
MSL
hPa
Rain since
9am
mm
Dir  Spd
km/h
Gust
km/h
Spd
kts
Gust
kts
15/11:30pm 8.3 2.0 7.2 93 0.5 WNW 30 43 16 23 1003.4 1003.6 1.0
15/11:00pm 8.2 1.9 7.4 95 0.4 WNW 30 44 16 24 1003.7 1003.9 1.0
15/10:30pm 8.0 2.6 7.9 99 0.0 WNW 26 43 14 23 1004.2 1004.4 1.0
15/10:00pm 8.2 2.8 8.1 99 0.0 WNW 26 37 14 20 1004.9 1005.1 0.8
15/09:30pm 8.5 2.6 7.6 94 0.4 WNW 28 52 15 28 1005.1 1005.3 0.8
15/09:21pm 8.6 2.6 7.2 91 0.7 WNW 28 52 15 28 1005.1 1005.3 0.8
15/09:00pm 8.6 3.3 6.9 89 0.8 WNW 24 37 13 20 1005.3 1005.5 0.8
15/08:30pm 8.2 3.3 6.8 91 0.7 WNW 22 39 12 21 1005.5 1005.7 0.8
15/08:00pm 8.0 3.8 7.6 97 0.2 WNW 19 26 10 14 1005.8 1006.1 0.6
15/07:30pm 7.8 2.7 7.7 99 0.0 W 24 33 13 18 1006.0 1006.3 0.6
15/07:00pm 8.0 3.3 7.9 99 0.0 W 22 33 12 18 1006.3 1006.6 0.4
15/06:30pm 8.3 4.7 8.2 99 0.0 WNW 17 26 9 14 1006.3 1006.6 0.2
15/06:00pm 8.6 4.5 8.0 96 0.3 NW 19 28 10 15 1006.3 1006.6 0.0
15/05:30pm 9.0 5.5 7.1 88 0.9 WNW 15 22 8 12 1006.3 1006.6 0.0
15/05:00pm 9.1 5.2 7.1 87 0.9 WNW 17 28 9 15 1006.2 1006.5 0.0
15/04:30pm 9.3 5.4 6.9 85 1.1 WNW 17 24 9 13 1006.2 1006.5 0.0
15/04:00pm 9.4 5.4 6.5 82 1.4 WNW 17 26 9 14 1006.3 1006.6 0.0
15/03:30pm 9.3 4.9 6.7 84 1.2 WNW 19 28 10 15 1006.6 1006.9 0.0
15/03:00pm 9.2 4.2 6.6 84 1.2 WNW 22 33 12 18 1006.7 1007.0 0.0
15/02:30pm 9.6 4.7 6.7 82 1.4 W 22 33 12 18 1006.9 1007.1 0.0
15/02:00pm 10.4 5.6 7.3 81 1.5 W 22 30 12 16 1007.0 1007.2 0.0
15/01:30pm 10.1 5.9 7.5 84 1.3 W 19 26 10 14 1007.3 1007.5 0.0
15/01:00pm 9.9 6.2 7.8 87 1.0 W 17 26 9 14 1007.8 1008.0 0.0
15/12:30pm 9.9 5.8 8.7 92 0.6 W 20 26 11 14 1008.3 1008.5 0.0
15/12:00pm 9.7 5.5 8.3 91 0.7 W 20 26 11 14 1008.7 1008.9 0.0
15/11:30am 9.2 5.2 9.1 99 0.0 W 20 26 11 14 1009.3 1009.5 0.0
15/11:00am 8.0 4.3 8.0 100 0.0 W 17 20 9 11 1009.9 1010.1 0.0
15/10:30am 7.4 3.9 7.4 100 0.0 W 15 20 8 11 1010.1 1010.3 0.0
15/10:00am 6.4 2.7 6.4 100 0.0 W 15 19 8 10 1010.1 1010.3 0.0
15/09:30am 6.0 2.6 6.0 100 0.0 W 13 19 7 10 1010.0 1010.2 0.0
15/09:00am 5.7 1.9 5.7 100 0.0 WNW 15 22 8 12 1009.9 1010.1 0.0
15/08:30am 4.8 1.2 4.8 100 0.0 WNW 13 20 7 11 1009.9 1010.1 0.0

Other formats

Comma delimited format used in spreadsheet applications
http://www.bom.gov.au/fwo/IDV60801/IDV60801.94862.axf

JavaScript Object Notation format (JSON) in row-major order
http://www.bom.gov.au/fwo/IDV60801/IDV60801.94862.json

Data quality

Most of these data are generated automatically and are frequently updated. Quality checks on data are not normally performed. It is possible for incorrect values to appear. Refer to information at About Latest Weather Observations and please check the disclaimer before using these data.